IGO1173 VOMM-VCBI
Flight info
| Callsign | IGO1173 |
|---|---|
| Flight time | 1h 3m |
| Altitude | 34000 |
| Route | TEGUT2B TEGUT R457 TTR/N0448F350 G325 IDIBI IDIBI1A |
| Aircraft | A320/M-SDE3FGHIRWY/LB1 |
Departure
| Time | 2026-05-07 03:37 |
|---|---|
| Airport | Chennai International Airport (VOMM) |
Arrival
| Time | 2026-05-07 04:40 |
|---|---|
| Airport | Bandaranaike International Colombo Airport (VCBI) |
| Time | Latitude | Longitude | Altitude | Speed | Heading |
|---|---|---|---|---|---|
| 2026-05-07 03:16 | 12.98580 | 80.16532 | 55 ft | 0 kts | 339° |
| 2026-05-07 03:26 | 12.98578 | 80.16533 | 55 ft | 2 kts | 338° |
| 2026-05-07 03:26 | 12.98564 | 80.16539 | 49 ft | 2 kts | 338° |
| 2026-05-07 03:26 | 12.98550 | 80.16544 | 55 ft | 2 kts | 338° |
| 2026-05-07 03:26 | 12.98536 | 80.16550 | 47 ft | 2 kts | 338° |
| 2026-05-07 03:27 | 12.98522 | 80.16554 | 49 ft | 2 kts | 20° |
| 2026-05-07 03:27 | 12.98509 | 80.16546 | 49 ft | 2 kts | 62° |
| 2026-05-07 03:27 | 12.98505 | 80.16537 | 48 ft | 0 kts | 67° |
| 2026-05-07 03:30 | 12.98506 | 80.16539 | 49 ft | 1 kts | 67° |
| 2026-05-07 03:30 | 12.98512 | 80.16553 | 50 ft | 3 kts | 67° |
| 2026-05-07 03:30 | 12.98523 | 80.16581 | 51 ft | 5 kts | 68° |
| 2026-05-07 03:30 | 12.98539 | 80.16622 | 53 ft | 7 kts | 69° |
| 2026-05-07 03:31 | 12.98560 | 80.16677 | 50 ft | 9 kts | 69° |
| 2026-05-07 03:31 | 12.98585 | 80.16744 | 53 ft | 10 kts | 69° |
| 2026-05-07 03:31 | 12.98648 | 80.16759 | 54 ft | 12 kts | 339° |
| 2026-05-07 03:31 | 12.98728 | 80.16728 | 52 ft | 13 kts | 349° |
| 2026-05-07 03:32 | 12.98781 | 80.16798 | 52 ft | 15 kts | 70° |
| 2026-05-07 03:32 | 12.98823 | 80.16901 | 55 ft | 17 kts | 67° |
| 2026-05-07 03:32 | 12.98867 | 80.17014 | 52 ft | 15 kts | 70° |
| 2026-05-07 03:32 | 12.98905 | 80.17122 | 51 ft | 17 kts | 70° |
| 2026-05-07 03:33 | 12.98940 | 80.17220 | 52 ft | 12 kts | 67° |
| 2026-05-07 03:33 | 12.98984 | 80.17305 | 55 ft | 15 kts | 65° |
| 2026-05-07 03:33 | 12.99025 | 80.17407 | 49 ft | 16 kts | 68° |
| 2026-05-07 03:33 | 12.99061 | 80.17504 | 54 ft | 14 kts | 69° |
| 2026-05-07 03:34 | 12.99098 | 80.17601 | 50 ft | 15 kts | 69° |
| 2026-05-07 03:34 | 12.99130 | 80.17682 | 53 ft | 12 kts | 58° |
| 2026-05-07 03:34 | 12.99200 | 80.17711 | 56 ft | 9 kts | 34° |
| 2026-05-07 03:34 | 12.99228 | 80.17776 | 51 ft | 11 kts | 69° |
| 2026-05-07 03:35 | 12.99258 | 80.17856 | 53 ft | 13 kts | 70° |
| 2026-05-07 03:35 | 12.99293 | 80.17951 | 53 ft | 15 kts | 69° |
| 2026-05-07 03:35 | 12.99329 | 80.18046 | 52 ft | 12 kts | 69° |
| 2026-05-07 03:35 | 12.99363 | 80.18114 | 52 ft | 10 kts | 38° |
| 2026-05-07 03:36 | 12.99425 | 80.18087 | 56 ft | 12 kts | 298° |
| 2026-05-07 03:36 | 12.99428 | 80.17996 | 56 ft | 14 kts | 250° |
| 2026-05-07 03:36 | 12.99389 | 80.17890 | 54 ft | 17 kts | 249° |
| 2026-05-07 03:36 | 12.99332 | 80.17740 | 54 ft | 40 kts | 248° |
| 2026-05-07 03:37 | 12.99146 | 80.17242 | 51 ft | 106 kts | 249° |
| 2026-05-07 03:37 | 12.98821 | 80.16378 | 56 ft | 152 kts | 249° |
| 2026-05-07 03:37 | 12.98414 | 80.15297 | 424 ft | 164 kts | 248° |
| 2026-05-07 03:37 | 12.98015 | 80.14187 | 1018 ft | 166 kts | 250° |
| 2026-05-07 03:38 | 12.97608 | 80.13060 | 1515 ft | 175 kts | 249° |
| 2026-05-07 03:38 | 12.97149 | 80.11824 | 1758 ft | 197 kts | 249° |
| 2026-05-07 03:38 | 12.96629 | 80.10440 | 1983 ft | 221 kts | 248° |
| 2026-05-07 03:38 | 12.96045 | 80.08892 | 2327 ft | 245 kts | 248° |
| 2026-05-07 03:39 | 12.95403 | 80.07192 | 2818 ft | 264 kts | 248° |
| 2026-05-07 03:39 | 12.94727 | 80.05407 | 3595 ft | 271 kts | 248° |
| 2026-05-07 03:39 | 12.94036 | 80.03587 | 4424 ft | 276 kts | 248° |
| 2026-05-07 03:39 | 12.93332 | 80.01738 | 5245 ft | 281 kts | 248° |
| 2026-05-07 03:40 | 12.92623 | 79.99879 | 6050 ft | 286 kts | 248° |
| 2026-05-07 03:40 | 12.91892 | 79.97966 | 6806 ft | 290 kts | 248° |
| 2026-05-07 03:40 | 12.91152 | 79.96026 | 7547 ft | 295 kts | 248° |
| 2026-05-07 03:40 | 12.90391 | 79.94031 | 8294 ft | 299 kts | 249° |
| 2026-05-07 03:41 | 12.89522 | 79.92080 | 9009 ft | 303 kts | 241° |
| 2026-05-07 03:41 | 12.88519 | 79.90190 | 9715 ft | 308 kts | 241° |
| 2026-05-07 03:41 | 12.87476 | 79.88238 | 10174 ft | 321 kts | 241° |
| 2026-05-07 03:41 | 12.86367 | 79.86162 | 10339 ft | 343 kts | 242° |
| 2026-05-07 03:42 | 12.85201 | 79.83984 | 10768 ft | 352 kts | 242° |
| 2026-05-07 03:42 | 12.84014 | 79.81769 | 11383 ft | 356 kts | 242° |
| 2026-05-07 03:42 | 12.82818 | 79.79534 | 12011 ft | 359 kts | 242° |
| 2026-05-07 03:42 | 12.81613 | 79.77282 | 12661 ft | 361 kts | 242° |
| 2026-05-07 03:43 | 12.80400 | 79.75018 | 13277 ft | 364 kts | 240° |
| 2026-05-07 03:43 | 12.78918 | 79.72901 | 13858 ft | 367 kts | 227° |
| 2026-05-07 03:43 | 12.76997 | 79.71174 | 14411 ft | 369 kts | 214° |
| 2026-05-07 03:43 | 12.74744 | 79.69919 | 14967 ft | 370 kts | 202° |
| 2026-05-07 03:44 | 12.72336 | 79.68973 | 15515 ft | 372 kts | 201° |
| 2026-05-07 03:44 | 12.69910 | 79.68031 | 16099 ft | 373 kts | 201° |
| 2026-05-07 03:44 | 12.67480 | 79.67089 | 16674 ft | 374 kts | 201° |
| 2026-05-07 03:44 | 12.65043 | 79.66141 | 17218 ft | 376 kts | 201° |
| 2026-05-07 03:45 | 12.62595 | 79.65184 | 17766 ft | 378 kts | 201° |
| 2026-05-07 03:45 | 12.60134 | 79.64221 | 18274 ft | 380 kts | 201° |
| 2026-05-07 03:45 | 12.57660 | 79.63253 | 18714 ft | 382 kts | 201° |
| 2026-05-07 03:45 | 12.55173 | 79.62283 | 19139 ft | 385 kts | 201° |
| 2026-05-07 03:46 | 12.52654 | 79.61305 | 19561 ft | 388 kts | 201° |
| 2026-05-07 03:46 | 12.50121 | 79.60322 | 19985 ft | 391 kts | 201° |
| 2026-05-07 03:46 | 12.48403 | 79.59655 | 20267 ft | 393 kts | 201° |
| 2026-05-07 03:46 | 12.44999 | 79.58329 | 20816 ft | 397 kts | 201° |
| 2026-05-07 03:47 | 12.43291 | 79.57662 | 21091 ft | 398 kts | 201° |
| 2026-05-07 03:47 | 12.40692 | 79.56649 | 21496 ft | 401 kts | 201° |
| 2026-05-07 03:47 | 12.38074 | 79.55630 | 21905 ft | 404 kts | 201° |
| 2026-05-07 03:47 | 12.35438 | 79.54606 | 22303 ft | 407 kts | 200° |
| 2026-05-07 03:48 | 12.32785 | 79.53576 | 22699 ft | 409 kts | 200° |
| 2026-05-07 03:48 | 12.30114 | 79.52538 | 23078 ft | 412 kts | 200° |
| 2026-05-07 03:48 | 12.27425 | 79.51493 | 23459 ft | 415 kts | 200° |
| 2026-05-07 03:48 | 12.24721 | 79.50445 | 23770 ft | 417 kts | 200° |
| 2026-05-07 03:49 | 12.21995 | 79.49389 | 24083 ft | 420 kts | 200° |
| 2026-05-07 03:49 | 12.19259 | 79.48327 | 24398 ft | 422 kts | 200° |
| 2026-05-07 03:49 | 12.16510 | 79.47257 | 24716 ft | 424 kts | 200° |
| 2026-05-07 03:49 | 12.13750 | 79.46184 | 25031 ft | 426 kts | 200° |
| 2026-05-07 03:50 | 12.10973 | 79.45107 | 25350 ft | 428 kts | 200° |
| 2026-05-07 03:50 | 12.08183 | 79.44023 | 25661 ft | 430 kts | 200° |
| 2026-05-07 03:50 | 12.05378 | 79.42933 | 25973 ft | 432 kts | 200° |
| 2026-05-07 03:50 | 12.02560 | 79.41838 | 26284 ft | 434 kts | 200° |
| 2026-05-07 03:51 | 11.99724 | 79.40738 | 26580 ft | 436 kts | 200° |
| 2026-05-07 03:51 | 11.96881 | 79.39634 | 26882 ft | 439 kts | 200° |
| 2026-05-07 03:51 | 11.94022 | 79.38525 | 27176 ft | 441 kts | 200° |
| 2026-05-07 03:51 | 11.91155 | 79.37416 | 27465 ft | 443 kts | 200° |
| 2026-05-07 03:52 | 11.88261 | 79.36300 | 27756 ft | 445 kts | 200° |
| 2026-05-07 03:52 | 11.85363 | 79.35181 | 28041 ft | 447 kts | 200° |
| 2026-05-07 03:52 | 11.82443 | 79.34053 | 28332 ft | 449 kts | 200° |
| 2026-05-07 03:52 | 11.79523 | 79.32922 | 28628 ft | 451 kts | 200° |
| 2026-05-07 03:53 | 11.76581 | 79.31782 | 28923 ft | 453 kts | 200° |
| 2026-05-07 03:53 | 11.73626 | 79.30637 | 29224 ft | 455 kts | 200° |
| 2026-05-07 03:53 | 11.70660 | 79.29488 | 29516 ft | 458 kts | 200° |
| 2026-05-07 03:53 | 11.67673 | 79.28331 | 29816 ft | 460 kts | 200° |
| 2026-05-07 03:54 | 11.64659 | 79.27218 | 30072 ft | 461 kts | 195° |
| 2026-05-07 03:54 | 11.61509 | 79.26578 | 30317 ft | 462 kts | 185° |
| 2026-05-07 03:54 | 11.58297 | 79.26545 | 30558 ft | 463 kts | 174° |
| 2026-05-07 03:54 | 11.55128 | 79.27119 | 30836 ft | 463 kts | 163° |
| 2026-05-07 03:55 | 11.52125 | 79.28273 | 31211 ft | 461 kts | 153° |
| 2026-05-07 03:55 | 11.49278 | 79.29776 | 31577 ft | 460 kts | 152° |
| 2026-05-07 03:55 | 11.46489 | 79.31258 | 31951 ft | 459 kts | 152° |
| 2026-05-07 03:55 | 11.43659 | 79.32755 | 32324 ft | 458 kts | 152° |
| 2026-05-07 03:56 | 11.40831 | 79.34248 | 32711 ft | 457 kts | 153° |
| 2026-05-07 03:56 | 11.38011 | 79.35736 | 33083 ft | 456 kts | 153° |
| 2026-05-07 03:56 | 11.35199 | 79.37220 | 33465 ft | 455 kts | 153° |
| 2026-05-07 03:56 | 11.32391 | 79.38704 | 33858 ft | 454 kts | 153° |
| 2026-05-07 03:57 | 11.29581 | 79.40186 | 34187 ft | 453 kts | 153° |
| 2026-05-07 03:57 | 11.26787 | 79.41660 | 34507 ft | 452 kts | 153° |
| 2026-05-07 03:57 | 11.23997 | 79.43131 | 34777 ft | 452 kts | 153° |
| 2026-05-07 03:58 | 11.18419 | 79.46060 | 34867 ft | 450 kts | 153° |
| 2026-05-07 03:58 | 11.12868 | 79.48971 | 34864 ft | 448 kts | 153° |
| 2026-05-07 03:59 | 11.07321 | 79.51889 | 34865 ft | 448 kts | 153° |
| 2026-05-07 03:59 | 11.01779 | 79.54803 | 34865 ft | 448 kts | 153° |
| 2026-05-07 04:00 | 10.96235 | 79.57710 | 34864 ft | 449 kts | 153° |
| 2026-05-07 04:00 | 10.90680 | 79.60624 | 34865 ft | 449 kts | 153° |
| 2026-05-07 04:01 | 10.85118 | 79.63540 | 34867 ft | 450 kts | 153° |
| 2026-05-07 04:01 | 10.79555 | 79.66457 | 34860 ft | 450 kts | 153° |
| 2026-05-07 04:02 | 10.73986 | 79.69374 | 34861 ft | 450 kts | 153° |
| 2026-05-07 04:02 | 10.68422 | 79.72297 | 34862 ft | 451 kts | 153° |
| 2026-05-07 04:03 | 10.62843 | 79.75230 | 34866 ft | 451 kts | 153° |
| 2026-05-07 04:03 | 10.57270 | 79.78162 | 34869 ft | 451 kts | 153° |
| 2026-05-07 04:04 | 10.51693 | 79.81087 | 34871 ft | 451 kts | 153° |
| 2026-05-07 04:04 | 10.46118 | 79.84009 | 34874 ft | 451 kts | 153° |
| 2026-05-07 04:05 | 10.40579 | 79.86918 | 34875 ft | 451 kts | 153° |
| 2026-05-07 04:05 | 10.34996 | 79.89843 | 34880 ft | 451 kts | 153° |
| 2026-05-07 04:06 | 10.29426 | 79.92759 | 34882 ft | 451 kts | 153° |
| 2026-05-07 04:06 | 10.23854 | 79.95676 | 34881 ft | 450 kts | 153° |
| 2026-05-07 04:07 | 10.18282 | 79.98596 | 34882 ft | 450 kts | 153° |
| 2026-05-07 04:07 | 10.12727 | 80.01510 | 34884 ft | 450 kts | 153° |
| 2026-05-07 04:08 | 10.07163 | 80.04420 | 34881 ft | 449 kts | 153° |
| 2026-05-07 04:08 | 10.01511 | 80.07097 | 34882 ft | 449 kts | 163° |
| 2026-05-07 04:09 | 9.95363 | 80.07975 | 34879 ft | 448 kts | 182° |
| 2026-05-07 04:09 | 9.89138 | 80.07701 | 34874 ft | 448 kts | 182° |
| 2026-05-07 04:10 | 9.82901 | 80.07441 | 34875 ft | 448 kts | 182° |
| 2026-05-07 04:10 | 9.76714 | 80.07186 | 34873 ft | 448 kts | 182° |
| 2026-05-07 04:11 | 9.70478 | 80.06921 | 34873 ft | 449 kts | 182° |
| 2026-05-07 04:11 | 9.64239 | 80.06653 | 34869 ft | 449 kts | 182° |
| 2026-05-07 04:12 | 9.57998 | 80.06398 | 34871 ft | 449 kts | 182° |
| 2026-05-07 04:12 | 9.51754 | 80.06152 | 34870 ft | 449 kts | 182° |
| 2026-05-07 04:13 | 9.45508 | 80.05894 | 34868 ft | 449 kts | 182° |
| 2026-05-07 04:13 | 9.39258 | 80.05618 | 34874 ft | 449 kts | 182° |
| 2026-05-07 04:14 | 9.33007 | 80.05350 | 34869 ft | 450 kts | 182° |
| 2026-05-07 04:14 | 9.26759 | 80.05099 | 34874 ft | 450 kts | 181° |
| 2026-05-07 04:15 | 9.20506 | 80.04844 | 34877 ft | 450 kts | 182° |
| 2026-05-07 04:15 | 9.14256 | 80.04577 | 34881 ft | 449 kts | 182° |
| 2026-05-07 04:16 | 9.08009 | 80.04312 | 34881 ft | 449 kts | 182° |
| 2026-05-07 04:16 | 9.01761 | 80.04052 | 34879 ft | 449 kts | 181° |
| 2026-05-07 04:17 | 8.95517 | 80.03795 | 34878 ft | 449 kts | 181° |
| 2026-05-07 04:17 | 8.89269 | 80.03540 | 34878 ft | 449 kts | 182° |
| 2026-05-07 04:18 | 8.83019 | 80.03278 | 34879 ft | 450 kts | 181° |
| 2026-05-07 04:18 | 8.76800 | 80.03016 | 34797 ft | 452 kts | 181° |
| 2026-05-07 04:18 | 8.73616 | 80.02884 | 34565 ft | 453 kts | 181° |
| 2026-05-07 04:19 | 8.70454 | 80.02753 | 34269 ft | 454 kts | 181° |
| 2026-05-07 04:19 | 8.67280 | 80.02621 | 33333 ft | 462 kts | 181° |
| 2026-05-07 04:19 | 8.64050 | 80.02485 | 32442 ft | 467 kts | 181° |
| 2026-05-07 04:19 | 8.60800 | 80.02347 | 31802 ft | 466 kts | 181° |
| 2026-05-07 04:20 | 8.57573 | 80.02208 | 31236 ft | 463 kts | 181° |
| 2026-05-07 04:20 | 8.54397 | 80.02075 | 30657 ft | 461 kts | 181° |
| 2026-05-07 04:20 | 8.51199 | 80.01944 | 30069 ft | 459 kts | 181° |
| 2026-05-07 04:21 | 8.44862 | 80.01687 | 28848 ft | 452 kts | 181° |
| 2026-05-07 04:21 | 8.41733 | 80.01556 | 28266 ft | 448 kts | 181° |
| 2026-05-07 04:21 | 8.38631 | 80.01425 | 27697 ft | 444 kts | 181° |
| 2026-05-07 04:21 | 8.35555 | 80.01295 | 27133 ft | 441 kts | 181° |
| 2026-05-07 04:22 | 8.32503 | 80.01164 | 26568 ft | 437 kts | 181° |
| 2026-05-07 04:22 | 8.29472 | 80.01034 | 26018 ft | 434 kts | 181° |
| 2026-05-07 04:22 | 8.26468 | 80.00904 | 25479 ft | 430 kts | 181° |
| 2026-05-07 04:22 | 8.23487 | 80.00776 | 24960 ft | 427 kts | 181° |
| 2026-05-07 04:23 | 8.20531 | 80.00652 | 24447 ft | 424 kts | 181° |
| 2026-05-07 04:23 | 8.17588 | 80.00531 | 23950 ft | 420 kts | 181° |
| 2026-05-07 04:23 | 8.14676 | 80.00409 | 23466 ft | 417 kts | 181° |
| 2026-05-07 04:23 | 8.11784 | 80.00286 | 22935 ft | 414 kts | 181° |
| 2026-05-07 04:24 | 8.08931 | 80.00164 | 22471 ft | 409 kts | 181° |
| 2026-05-07 04:24 | 8.06102 | 80.00045 | 22002 ft | 405 kts | 181° |
| 2026-05-07 04:24 | 8.03293 | 79.99929 | 21527 ft | 402 kts | 182° |
| 2026-05-07 04:24 | 8.00512 | 79.99814 | 21042 ft | 398 kts | 182° |
| 2026-05-07 04:25 | 7.97751 | 79.99699 | 20566 ft | 396 kts | 182° |
| 2026-05-07 04:25 | 7.95012 | 79.99583 | 20078 ft | 393 kts | 182° |
| 2026-05-07 04:25 | 7.92285 | 79.99469 | 19579 ft | 391 kts | 182° |
| 2026-05-07 04:25 | 7.89572 | 79.99355 | 19076 ft | 389 kts | 182° |
| 2026-05-07 04:26 | 7.86905 | 79.99244 | 18571 ft | 388 kts | 182° |
| 2026-05-07 04:26 | 7.84212 | 79.99133 | 18050 ft | 387 kts | 182° |
| 2026-05-07 04:26 | 7.81530 | 79.99022 | 17490 ft | 384 kts | 182° |
| 2026-05-07 04:26 | 7.78871 | 79.98911 | 16982 ft | 381 kts | 182° |
| 2026-05-07 04:27 | 7.76235 | 79.98800 | 16466 ft | 378 kts | 182° |
| 2026-05-07 04:27 | 7.73619 | 79.98689 | 15959 ft | 375 kts | 182° |
| 2026-05-07 04:27 | 7.71019 | 79.98579 | 15438 ft | 373 kts | 182° |
| 2026-05-07 04:27 | 7.68437 | 79.98469 | 14938 ft | 371 kts | 182° |
| 2026-05-07 04:28 | 7.65865 | 79.98360 | 14429 ft | 369 kts | 182° |
| 2026-05-07 04:28 | 7.63307 | 79.98251 | 13916 ft | 367 kts | 182° |
| 2026-05-07 04:28 | 7.60759 | 79.98144 | 13371 ft | 366 kts | 182° |
| 2026-05-07 04:28 | 7.58226 | 79.98039 | 12845 ft | 363 kts | 182° |
| 2026-05-07 04:29 | 7.55715 | 79.97932 | 12333 ft | 360 kts | 182° |
| 2026-05-07 04:29 | 7.53224 | 79.97820 | 11828 ft | 357 kts | 185° |
| 2026-05-07 04:29 | 7.50801 | 79.97354 | 11326 ft | 354 kts | 199° |
| 2026-05-07 04:29 | 7.48578 | 79.96322 | 10869 ft | 351 kts | 213° |
| 2026-05-07 04:30 | 7.46636 | 79.94874 | 10500 ft | 346 kts | 218° |
| 2026-05-07 04:30 | 7.44762 | 79.93404 | 10325 ft | 335 kts | 218° |
| 2026-05-07 04:30 | 7.42952 | 79.91990 | 10199 ft | 324 kts | 218° |
| 2026-05-07 04:30 | 7.41201 | 79.90625 | 10085 ft | 313 kts | 218° |
| 2026-05-07 04:31 | 7.39508 | 79.89302 | 9917 ft | 305 kts | 218° |
| 2026-05-07 04:31 | 7.37829 | 79.87989 | 9525 ft | 306 kts | 218° |
| 2026-05-07 04:31 | 7.36156 | 79.86691 | 9243 ft | 302 kts | 218° |
| 2026-05-07 04:31 | 7.34490 | 79.85407 | 8905 ft | 301 kts | 218° |
| 2026-05-07 04:32 | 7.32829 | 79.84133 | 8574 ft | 299 kts | 217° |
| 2026-05-07 04:32 | 7.31177 | 79.82867 | 8252 ft | 297 kts | 218° |
| 2026-05-07 04:32 | 7.29536 | 79.81608 | 7926 ft | 296 kts | 218° |
| 2026-05-07 04:32 | 7.27905 | 79.80354 | 7621 ft | 294 kts | 218° |
| 2026-05-07 04:33 | 7.26284 | 79.79106 | 7300 ft | 292 kts | 218° |
| 2026-05-07 04:33 | 7.25191 | 79.78264 | 6920 ft | 297 kts | 217° |
| 2026-05-07 04:33 | 7.23535 | 79.76992 | 6639 ft | 295 kts | 217° |
| 2026-05-07 04:33 | 7.21952 | 79.75778 | 6504 ft | 285 kts | 217° |
| 2026-05-07 04:34 | 7.20396 | 79.74590 | 6397 ft | 276 kts | 217° |
| 2026-05-07 04:34 | 7.18886 | 79.73448 | 6284 ft | 268 kts | 217° |
| 2026-05-07 04:34 | 7.17415 | 79.72337 | 6162 ft | 260 kts | 217° |
| 2026-05-07 04:34 | 7.15938 | 79.71363 | 6036 ft | 247 kts | 202° |
| 2026-05-07 04:35 | 7.14331 | 79.71003 | 5916 ft | 229 kts | 179° |
| 2026-05-07 04:35 | 7.12820 | 79.71274 | 5738 ft | 216 kts | 158° |
| 2026-05-07 04:35 | 7.11560 | 79.72051 | 5410 ft | 212 kts | 136° |
| 2026-05-07 04:35 | 7.10623 | 79.73173 | 5093 ft | 207 kts | 127° |
| 2026-05-07 04:36 | 7.09762 | 79.74297 | 4769 ft | 200 kts | 128° |
| 2026-05-07 04:36 | 7.08913 | 79.75397 | 4403 ft | 198 kts | 128° |
| 2026-05-07 04:36 | 7.08075 | 79.76488 | 4018 ft | 197 kts | 128° |
| 2026-05-07 04:36 | 7.07256 | 79.77584 | 3631 ft | 195 kts | 122° |
| 2026-05-07 04:37 | 7.06926 | 79.78881 | 3243 ft | 194 kts | 84° |
| 2026-05-07 04:37 | 7.07432 | 79.80114 | 2804 ft | 193 kts | 47° |
| 2026-05-07 04:37 | 7.08496 | 79.80925 | 2372 ft | 192 kts | 34° |
| 2026-05-07 04:37 | 7.09574 | 79.81723 | 1941 ft | 193 kts | 37° |
| 2026-05-07 04:38 | 7.10629 | 79.82549 | 1538 ft | 190 kts | 38° |
| 2026-05-07 04:38 | 7.11635 | 79.83374 | 1284 ft | 180 kts | 38° |
| 2026-05-07 04:38 | 7.12580 | 79.84121 | 1040 ft | 166 kts | 37° |
| 2026-05-07 04:38 | 7.13466 | 79.84807 | 857 ft | 155 kts | 37° |
| 2026-05-07 04:39 | 7.14308 | 79.85455 | 688 ft | 150 kts | 37° |
| 2026-05-07 04:39 | 7.15132 | 79.86082 | 495 ft | 148 kts | 37° |
| 2026-05-07 04:39 | 7.15946 | 79.86707 | 282 ft | 147 kts | 38° |
| 2026-05-07 04:39 | 7.16751 | 79.87329 | 98 ft | 146 kts | 37° |
| 2026-05-07 04:40 | 7.17535 | 79.87933 | 28 ft | 130 kts | 37° |
| 2026-05-07 04:40 | 7.18117 | 79.88377 | 27 ft | 80 kts | 37° |
| 2026-05-07 04:40 | 7.18472 | 79.88649 | 27 ft | 52 kts | 37° |
| 2026-05-07 04:40 | 7.18640 | 79.88777 | 28 ft | 15 kts | 37° |
| 2026-05-07 04:41 | 7.18685 | 79.88855 | 28 ft | 15 kts | 111° |
| 2026-05-07 04:41 | 7.18625 | 79.88932 | 26 ft | 12 kts | 130° |
| 2026-05-07 04:41 | 7.18543 | 79.88930 | 27 ft | 15 kts | 216° |
| 2026-05-07 04:41 | 7.18456 | 79.88861 | 28 ft | 17 kts | 218° |
| 2026-05-07 04:42 | 7.18352 | 79.88781 | 29 ft | 20 kts | 217° |
| 2026-05-07 04:42 | 7.18231 | 79.88689 | 27 ft | 23 kts | 217° |
| 2026-05-07 04:42 | 7.18097 | 79.88586 | 28 ft | 26 kts | 218° |
| 2026-05-07 04:42 | 7.17972 | 79.88491 | 26 ft | 18 kts | 217° |
| 2026-05-07 04:43 | 7.17865 | 79.88409 | 30 ft | 20 kts | 218° |
| 2026-05-07 04:43 | 7.17751 | 79.88321 | 29 ft | 20 kts | 217° |
| 2026-05-07 04:43 | 7.17667 | 79.88258 | 28 ft | 13 kts | 213° |
| 2026-05-07 04:43 | 7.17592 | 79.88299 | 26 ft | 15 kts | 127° |
| 2026-05-07 04:44 | 7.17542 | 79.88365 | 26 ft | 11 kts | 127° |
| 2026-05-07 04:44 | 7.17497 | 79.88424 | 27 ft | 10 kts | 127° |
| 2026-05-07 04:44 | 7.17478 | 79.88452 | 25 ft | 4 kts | 118° |
| 2026-05-07 04:44 | 7.17494 | 79.88479 | 26 ft | 6 kts | 40° |
| 2026-05-07 04:45 | 7.17527 | 79.88505 | 25 ft | 3 kts | 37° |
| 2026-05-07 04:45 | 7.17533 | 79.88509 | 25 ft | 0 kts | 38° |